Time;durP1;ratioP1;P1;durP2;ratioP2;P2;SDS_P1;SDS_P2;PMS_P1;PMS_P2;Temp;Humidity;BMP_temperature;BMP_pressure;BME280_temperature;BME280_humidity;BME280_pressure;Samples;Min_cycle;Max_cycle;Signal;HPM_P1;HPM_P2
2023/01/11 00:02:11;;;;;;;11.83;5.00;;;11.80;99.90;;;;;;5033834;28;20845;-88
2023/01/11 00:04:38;;;;;;;11.43;5.90;;;11.90;99.90;;;;;;5051428;28;20202;-84
2023/01/11 00:07:05;;;;;;;15.00;5.47;;;11.90;99.90;;;;;;5051898;28;20217;-85
2023/01/11 00:09:33;;;;;;;12.00;5.77;;;11.90;99.90;;;;;;5052672;28;20206;-89
2023/01/11 00:12:00;;;;;;;13.20;4.93;;;11.80;99.90;;;;;;5037263;28;20223;-85
2023/01/11 00:14:28;;;;;;;8.40;4.53;;;11.90;99.90;;;;;;5053387;28;20206;-93
2023/01/11 00:16:58;;;;;;;13.47;5.00;;;11.90;99.90;;;;;;5041091;28;20297;-84
2023/01/11 00:19:25;;;;;;;11.00;4.43;;;11.90;99.90;;;;;;5031788;28;20679;-87
2023/01/11 00:21:52;;;;;;;16.03;4.60;;;11.80;99.90;;;;;;5030356;28;20206;-89
2023/01/11 00:24:19;;;;;;;14.17;4.83;;;11.80;99.90;;;;;;5046805;28;20205;-91
2023/01/11 00:26:46;;;;;;;15.27;4.93;;;11.80;99.90;;;;;;5052472;28;20229;-86
2023/01/11 00:29:13;;;;;;;15.87;5.40;;;11.80;99.90;;;;;;5053181;28;20773;-90
2023/01/11 00:31:42;;;;;;;10.77;4.67;;;11.80;99.90;;;;;;5051675;28;20527;-90
2023/01/11 00:34:08;;;;;;;9.13;4.60;;;11.70;99.90;;;;;;5052388;28;20221;-93
2023/01/11 00:36:35;;;;;;;15.60;4.87;;;11.70;99.90;;;;;;5051508;28;20263;-93
2023/01/11 00:39:03;;;;;;;15.70;4.90;;;11.70;99.90;;;;;;5053322;28;20285;-90
2023/01/11 00:49:44;;;;;;;14.27;5.10;;;11.60;99.90;;;;;;5052250;28;20263;-94
2023/01/11 00:52:11;;;;;;;17.20;4.90;;;11.60;99.90;;;;;;5048245;28;20231;-94
2023/01/11 00:54:40;;;;;;;16.77;5.27;;;11.50;99.90;;;;;;5032632;28;20241;-92
2023/01/11 00:57:07;;;;;;;14.00;5.20;;;11.50;99.90;;;;;;5032393;28;20225;-92
2023/01/11 00:59:34;;;;;;;15.73;4.33;;;11.50;99.90;;;;;;5032609;28;20210;-94
2023/01/11 01:02:03;;;;;;;19.70;4.87;;;11.40;99.90;;;;;;5032446;28;20234;-91
2023/01/11 01:04:30;;;;;;;11.63;4.57;;;11.40;99.90;;;;;;5031954;28;20548;-93
2023/01/11 01:06:57;;;;;;;10.77;4.37;;;11.40;99.90;;;;;;5032219;28;20301;-87
2023/01/11 01:09:24;;;;;;;16.87;4.70;;;11.40;99.90;;;;;;5032487;28;20266;-95
2023/01/11 01:11:51;;;;;;;14.33;4.80;;;11.40;99.90;;;;;;5033136;28;20222;-88
2023/01/11 01:14:27;;;;;;;17.30;4.30;;;11.40;99.90;;;;;;5032557;28;20606;-94
2023/01/11 01:16:56;;;;;;;15.00;4.27;;;11.40;99.90;;;;;;5035401;28;20201;-93
2023/01/11 01:19:26;;;;;;;16.50;4.53;;;11.40;99.90;;;;;;5032890;28;20243;-92
2023/01/11 01:21:54;;;;;;;12.17;4.07;;;11.40;99.90;;;;;;5033784;28;20191;-89
2023/01/11 01:24:21;;;;;;;13.80;4.17;;;11.40;99.90;;;;;;5033459;28;20305;-92
2023/01/11 01:26:49;;;;;;;19.87;4.80;;;11.40;99.90;;;;;;5033981;28;20716;-92
2023/01/11 01:29:16;;;;;;;15.13;4.40;;;11.40;99.90;;;;;;5037642;28;20256;-90
2023/01/11 01:31:44;;;;;;;22.07;5.27;;;11.30;99.90;;;;;;5033826;28;20329;-93
2023/01/11 01:34:11;;;;;;;16.00;4.07;;;11.30;99.90;;;;;;5041065;28;20225;-86
2023/01/11 01:36:40;;;;;;;16.13;4.37;;;11.30;99.90;;;;;;5049205;28;20420;-85
2023/01/11 01:39:08;;;;;;;14.33;4.43;;;11.40;99.90;;;;;;5050063;28;20296;-89
2023/01/11 01:41:35;;;;;;;16.83;5.07;;;11.30;99.90;;;;;;5051798;28;20202;-85
2023/01/11 01:44:04;;;;;;;13.97;4.97;;;11.30;99.90;;;;;;5050151;28;20198;-83
2023/01/11 01:46:33;;;;;;;18.83;5.27;;;11.30;99.90;;;;;;5040510;28;20203;-89
2023/01/11 01:49:04;;;;;;;17.93;4.77;;;11.30;99.90;;;;;;5030650;28;20195;-85
2023/01/11 01:51:38;;;;;;;15.97;4.93;;;11.20;99.90;;;;;;5029938;28;20313;-89
2023/01/11 01:54:10;;;;;;;16.27;5.57;;;11.20;99.90;;;;;;5030563;28;20222;-81
2023/01/11 01:56:44;;;;;;;22.13;7.10;;;11.20;99.90;;;;;;5030258;28;20230;-81
2023/01/11 01:59:15;;;;;;;29.77;7.37;;;11.20;99.90;;;;;;5029712;28;20212;-86
2023/01/11 02:01:48;;;;;;;21.27;5.03;;;11.20;99.90;;;;;;5027665;28;20907;-87
2023/01/11 02:04:22;;;;;;;19.93;6.33;;;11.20;99.90;;;;;;5030710;28;20207;-87
2023/01/11 02:06:49;;;;;;;21.73;5.20;;;11.20;99.90;;;;;;5029645;28;20909;-86
2023/01/11 02:09:26;;;;;;;24.47;6.37;;;11.20;99.90;;;;;;5029828;28;20202;-86
2023/01/11 02:11:55;;;;;;;21.97;6.30;;;11.20;99.90;;;;;;5030528;28;20238;-86
2023/01/11 02:14:23;;;;;;;28.03;6.17;;;11.20;99.90;;;;;;5030363;28;20223;-90
2023/01/11 02:16:50;;;;;;;21.00;5.03;;;11.20;99.90;;;;;;5034800;28;20198;-88
2023/01/11 02:19:35;;;;;;;30.37;6.10;;;11.20;99.90;;;;;;5049745;28;20809;-81
2023/01/11 02:22:17;;;;;;;22.63;6.27;;;11.10;99.90;;;;;;5048820;28;20304;-84
2023/01/11 02:25:12;;;;;;;27.73;6.33;;;11.10;99.90;;;;;;5043766;28;20194;-92
2023/01/11 02:28:00;;;;;;;28.47;6.93;;;11.10;99.90;;;;;;5030911;28;20197;-92
2023/01/11 02:30:34;;;;;;;29.47;8.53;;;11.10;99.90;;;;;;5030882;28;20780;-92
2023/01/11 02:33:10;;;;;;;42.40;9.03;;;11.20;99.90;;;;;;5030813;28;20665;-93
2023/01/11 02:35:46;;;;;;;33.00;7.90;;;11.10;99.90;;;;;;5030525;28;20244;-89
2023/01/11 02:38:22;;;;;;;37.30;7.57;;;11.10;99.90;;;;;;5030912;28;20230;-92
2023/01/11 02:40:54;;;;;;;31.80;8.40;;;11.10;99.90;;;;;;5046818;28;20288;-90
2023/01/11 02:46:21;;;;;;;29.57;8.23;;;11.10;99.90;;;;;;5050807;28;20316;-91
2023/01/11 02:48:57;;;;;;;36.77;8.33;;;11.10;99.90;;;;;;5050876;28;20221;-94
2023/01/11 02:51:31;;;;;;;33.77;8.07;;;11.10;99.90;;;;;;5050597;28;20201;-92
2023/01/11 02:54:02;;;;;;;22.60;8.40;;;11.10;99.90;;;;;;5050245;28;20210;-91
2023/01/11 02:56:33;;;;;;;36.67;10.23;;;11.00;99.90;;;;;;5050064;28;20206;-89
2023/01/11 02:59:04;;;;;;;32.23;10.93;;;11.00;99.90;;;;;;5050365;28;20281;-86
2023/01/11 03:01:31;;;;;;;34.57;8.73;;;11.00;99.90;;;;;;5049379;28;20220;-86
2023/01/11 03:03:57;;;;;;;35.30;8.13;;;11.00;99.90;;;;;;5044999;28;20216;-91
2023/01/11 03:06:28;;;;;;;42.13;8.67;;;11.00;99.90;;;;;;5047427;28;20301;-84
2023/01/11 03:09:15;;;;;;;50.17;9.07;;;11.00;99.90;;;;;;5046775;28;20197;-92
2023/01/11 03:15:03;;;;;;;42.63;8.37;;;11.00;99.90;;;;;;5023651;28;20782;-92
2023/01/11 03:17:42;;;;;;;47.27;8.13;;;11.00;99.90;;;;;;5052681;28;20201;-90
2023/01/11 03:20:17;;;;;;;32.83;6.23;;;11.00;99.90;;;;;;5052399;28;20212;-90
2023/01/11 03:22:58;;;;;;;42.37;8.17;;;11.00;99.90;;;;;;5052875;28;20201;-87
2023/01/11 03:25:36;;;;;;;50.80;8.73;;;11.00;99.90;;;;;;5033462;28;20195;-84
2023/01/11 03:28:09;;;;;;;36.13;7.47;;;11.00;99.90;;;;;;5032337;28;20316;-85
2023/01/11 03:30:47;;;;;;;32.60;7.87;;;11.00;99.90;;;;;;5036482;28;20213;-93
2023/01/11 03:33:20;;;;;;;52.90;8.70;;;11.00;99.90;;;;;;5038025;28;20244;-83
2023/01/11 03:35:52;;;;;;;59.90;8.73;;;10.90;99.90;;;;;;5032117;28;20482;-82
2023/01/11 03:38:23;;;;;;;45.97;9.30;;;10.90;99.90;;;;;;5030992;28;20261;-84
2023/01/11 03:40:55;;;;;;;40.23;7.23;;;10.90;99.90;;;;;;5032675;28;20205;-84
2023/01/11 03:43:25;;;;;;;56.23;8.60;;;10.90;99.90;;;;;;5033116;28;20209;-88
2023/01/11 03:45:57;;;;;;;51.00;8.57;;;10.90;99.90;;;;;;5039332;28;20263;-86
2023/01/11 03:48:30;;;;;;;52.77;8.83;;;10.90;99.90;;;;;;5048804;28;20278;-85
2023/01/11 03:50:59;;;;;;;55.37;10.57;;;10.90;99.90;;;;;;5048638;28;20492;-83
2023/01/11 03:53:30;;;;;;;43.93;9.07;;;10.90;99.90;;;;;;5049377;28;20586;-81
2023/01/11 03:56:00;;;;;;;46.03;9.30;;;10.90;99.90;;;;;;5050840;28;20249;-82
2023/01/11 03:58:28;;;;;;;53.67;9.43;;;10.90;99.90;;;;;;5051058;28;20202;-83
2023/01/11 04:00:58;;;;;;;51.83;9.27;;;10.90;99.90;;;;;;5051776;28;20212;-86
2023/01/11 04:03:27;;;;;;;51.00;8.73;;;10.90;99.90;;;;;;5031459;28;20250;-81
2023/01/11 04:05:58;;;;;;;40.33;8.00;;;10.90;99.90;;;;;;5048762;28;20209;-85
2023/01/11 04:08:25;;;;;;;39.20;8.53;;;10.90;99.90;;;;;;5050638;28;20252;-80
2023/01/11 04:10:52;;;;;;;41.07;8.60;;;10.90;99.90;;;;;;5036793;28;20241;-81
2023/01/11 04:13:19;;;;;;;44.17;8.03;;;10.90;99.90;;;;;;5031059;28;20222;-82
2023/01/11 04:15:46;;;;;;;43.80;8.23;;;10.90;99.90;;;;;;5032458;28;20234;-80
2023/01/11 04:18:14;;;;;;;37.97;7.90;;;10.90;99.90;;;;;;5035462;28;20301;-82
2023/01/11 04:20:41;;;;;;;39.07;7.93;;;10.90;99.90;;;;;;5039441;28;20198;-90
2023/01/11 04:23:09;;;;;;;41.97;8.00;;;10.90;99.90;;;;;;5043357;28;20233;-89
2023/01/11 04:25:36;;;;;;;52.33;9.57;;;10.90;99.90;;;;;;5042001;28;20610;-88
2023/01/11 04:28:03;;;;;;;43.80;7.73;;;10.90;99.90;;;;;;5039676;28;20587;-88
2023/01/11 04:30:30;;;;;;;38.23;8.10;;;10.90;99.90;;;;;;5038589;28;20203;-88
2023/01/11 04:32:58;;;;;;;42.90;8.40;;;10.90;99.90;;;;;;5035293;28;20321;-85
2023/01/11 04:35:26;;;;;;;45.53;8.70;;;10.80;99.90;;;;;;5050628;28;20291;-89
2023/01/11 04:37:54;;;;;;;46.30;8.30;;;10.80;99.90;;;;;;5032393;28;20215;-92
2023/01/11 04:40:21;;;;;;;45.30;7.27;;;10.80;99.90;;;;;;5028787;28;20202;-85
2023/01/11 04:42:47;;;;;;;47.33;9.27;;;10.80;99.90;;;;;;5030712;28;20591;-89
2023/01/11 04:45:14;;;;;;;39.67;8.77;;;10.80;99.90;;;;;;5032338;28;20194;-90
2023/01/11 04:47:41;;;;;;;36.57;8.07;;;10.80;99.90;;;;;;5032657;28;20278;-89
2023/01/11 04:50:10;;;;;;;50.73;9.70;;;10.70;99.90;;;;;;5030111;28;20206;-93
2023/01/11 04:52:40;;;;;;;37.07;8.40;;;10.70;99.90;;;;;;5032437;28;20337;-81
2023/01/11 04:55:08;;;;;;;40.97;8.50;;;10.70;99.90;;;;;;5031001;28;20207;-84
2023/01/11 04:57:34;;;;;;;38.37;8.30;;;10.70;99.90;;;;;;5030111;28;20749;-86
2023/01/11 05:00:01;;;;;;;40.83;7.80;;;10.70;99.90;;;;;;5028922;28;20617;-84
2023/01/11 05:02:28;;;;;;;37.50;8.70;;;10.70;99.90;;;;;;5031080;28;20800;-88
2023/01/11 05:04:55;;;;;;;37.83;9.57;;;10.70;99.90;;;;;;5030174;28;20202;-84
2023/01/11 05:07:22;;;;;;;27.53;7.83;;;10.80;99.90;;;;;;5030657;28;20210;-86
2023/01/11 05:09:51;;;;;;;33.37;7.63;;;10.90;99.90;;;;;;5047598;28;20289;-84
2023/01/11 05:12:18;;;;;;;29.90;7.03;;;10.90;99.90;;;;;;5046243;28;20233;-90
2023/01/11 05:14:45;;;;;;;26.13;6.33;;;10.90;99.90;;;;;;5031919;28;20500;-90
2023/01/11 05:17:14;;;;;;;29.77;7.33;;;10.90;99.90;;;;;;5032152;28;20698;-93
2023/01/11 05:19:41;;;;;;;28.87;7.40;;;10.90;99.90;;;;;;5032042;28;20198;-93
2023/01/11 05:22:08;;;;;;;27.80;7.23;;;10.90;99.90;;;;;;5032168;28;20608;-92
2023/01/11 05:24:35;;;;;;;32.43;7.37;;;10.80;99.90;;;;;;5031606;28;20213;-92
2023/01/11 05:27:04;;;;;;;26.03;7.27;;;10.80;99.90;;;;;;5032125;28;20286;-89
2023/01/11 05:29:31;;;;;;;27.20;7.50;;;10.80;99.90;;;;;;5031012;28;20286;-91
2023/01/11 05:31:58;;;;;;;22.47;7.13;;;10.80;99.90;;;;;;5030819;28;20293;-91
2023/01/11 05:34:25;;;;;;;23.60;7.53;;;10.80;99.90;;;;;;5031828;28;20316;-88
2023/01/11 05:36:52;;;;;;;22.10;7.40;;;10.70;99.90;;;;;;5032086;28;20253;-91
2023/01/11 05:39:21;;;;;;;27.50;6.30;;;10.70;99.90;;;;;;5035719;28;20208;-90
2023/01/11 05:41:48;;;;;;;22.00;6.33;;;10.70;99.90;;;;;;5033728;28;20202;-88
2023/01/11 05:47:03;;;;;;;32.13;8.20;;;10.70;99.90;;;;;;5031587;28;20186;-92
2023/01/11 05:49:30;;;;;;;28.07;7.13;;;10.70;99.90;;;;;;5029760;28;20281;-90
2023/01/11 05:51:56;;;;;;;21.97;6.27;;;10.70;99.90;;;;;;5029391;28;20203;-91
2023/01/11 05:54:23;;;;;;;28.30;7.23;;;10.70;99.90;;;;;;5038900;28;20321;-91
2023/01/11 05:56:50;;;;;;;26.27;5.70;;;10.70;99.90;;;;;;5044070;28;20587;-92
2023/01/11 05:59:19;;;;;;;22.40;5.27;;;10.70;99.90;;;;;;5044632;28;20204;-87
2023/01/11 06:01:45;;;;;;;24.30;5.97;;;10.80;99.90;;;;;;5043650;28;20565;-85
2023/01/11 06:04:13;;;;;;;21.77;5.73;;;10.80;99.90;;;;;;5045451;28;20209;-83
2023/01/11 06:06:40;;;;;;;20.90;6.07;;;10.80;99.90;;;;;;5047777;28;20201;-84
2023/01/11 06:09:07;;;;;;;21.50;5.30;;;10.80;99.90;;;;;;5048821;28;20275;-83
2023/01/11 06:11:34;;;;;;;26.60;5.07;;;10.80;99.90;;;;;;5049384;28;20209;-84
2023/01/11 06:14:00;;;;;;;31.83;6.57;;;10.80;99.90;;;;;;5049552;28;20225;-87
2023/01/11 06:16:29;;;;;;;21.20;4.77;;;10.80;99.90;;;;;;5049307;28;20205;-84
2023/01/11 06:18:56;;;;;;;23.60;5.20;;;10.80;99.90;;;;;;5036510;28;20225;-87
2023/01/11 06:21:24;;;;;;;21.57;4.60;;;10.80;99.90;;;;;;5029367;28;20221;-83
2023/01/11 06:23:51;;;;;;;20.80;5.60;;;10.80;99.90;;;;;;5028987;28;20234;-82
2023/01/11 06:26:21;;;;;;;20.17;4.80;;;10.70;99.90;;;;;;5029065;28;20342;-81
2023/01/11 06:28:48;;;;;;;17.93;4.30;;;10.70;99.90;;;;;;5027947;28;20202;-87
2023/01/11 06:31:15;;;;;;;19.90;4.37;;;10.70;99.90;;;;;;5045673;28;20202;-79
2023/01/11 06:33:44;;;;;;;21.10;4.20;;;10.70;99.90;;;;;;5047367;28;20222;-82
2023/01/11 06:36:12;;;;;;;29.00;6.03;;;10.60;99.90;;;;;;5046481;28;20245;-83
2023/01/11 06:38:39;;;;;;;20.60;3.87;;;10.60;99.90;;;;;;5047554;28;20284;-83
2023/01/11 06:41:08;;;;;;;23.87;4.60;;;10.60;99.90;;;;;;5046995;28;20289;-84
2023/01/11 06:43:36;;;;;;;15.43;4.13;;;10.50;99.90;;;;;;5047063;28;20209;-81
2023/01/11 06:46:03;;;;;;;19.97;5.07;;;10.50;99.90;;;;;;5047473;28;20198;-81
2023/01/11 06:48:30;;;;;;;23.97;5.37;;;10.50;99.90;;;;;;5047251;28;20198;-81
2023/01/11 06:50:59;;;;;;;25.90;4.80;;;10.40;99.90;;;;;;5042990;28;20287;-84
2023/01/11 06:53:27;;;;;;;19.90;4.33;;;10.40;99.90;;;;;;5032241;28;20778;-82
2023/01/11 06:55:56;;;;;;;20.37;4.57;;;10.40;99.90;;;;;;5031444;28;20282;-83
2023/01/11 06:58:23;;;;;;;22.97;4.80;;;10.30;99.90;;;;;;5032206;28;20197;-83
2023/01/11 07:00:52;;;;;;;20.83;4.87;;;10.30;99.90;;;;;;5031318;28;20217;-83
2023/01/11 07:03:22;;;;;;;18.77;3.87;;;10.20;99.90;;;;;;5031165;28;20341;-85
2023/01/11 07:05:50;;;;;;;24.10;4.47;;;10.20;99.90;;;;;;5031826;28;20207;-84
2023/01/11 07:08:18;;;;;;;17.20;3.70;;;10.20;99.90;;;;;;5030892;28;20221;-81
2023/01/11 07:10:46;;;;;;;21.80;4.40;;;10.20;99.90;;;;;;5030620;28;20277;-88
2023/01/11 07:13:15;;;;;;;29.27;5.20;;;10.10;99.90;;;;;;5031812;28;20717;-81
2023/01/11 07:15:42;;;;;;;18.40;4.77;;;10.10;99.90;;;;;;5030426;28;20869;-81
2023/01/11 07:18:09;;;;;;;32.20;6.20;;;10.10;99.90;;;;;;5030061;28;20221;-83
2023/01/11 07:20:36;;;;;;;25.63;4.33;;;10.10;99.90;;;;;;5030494;28;20206;-81
2023/01/11 07:23:03;;;;;;;26.93;4.77;;;10.00;99.90;;;;;;5031928;28;20214;-81
2023/01/11 07:25:31;;;;;;;18.80;5.00;;;10.00;99.90;;;;;;5031290;28;20209;-83
2023/01/11 07:27:59;;;;;;;24.37;4.87;;;10.00;99.90;;;;;;5033066;28;20656;-82
2023/01/11 07:30:29;;;;;;;15.67;4.13;;;10.00;99.90;;;;;;5030523;28;20282;-83
2023/01/11 07:32:58;;;;;;;17.90;4.40;;;9.90;99.90;;;;;;5030490;28;20218;-83
2023/01/11 07:35:25;;;;;;;22.27;4.40;;;9.90;99.90;;;;;;5030639;28;20206;-83
2023/01/11 07:37:52;;;;;;;28.50;5.10;;;9.90;99.90;;;;;;5026113;28;20203;-82
2023/01/11 07:40:19;;;;;;;24.17;5.30;;;9.90;99.90;;;;;;5031055;28;20317;-83
2023/01/11 07:45:33;;;;;;;25.10;5.00;;;9.80;99.90;;;;;;5031007;28;20209;-83
2023/01/11 07:48:00;;;;;;;26.83;5.73;;;9.80;99.90;;;;;;5030645;28;20195;-81
2023/01/11 07:50:27;;;;;;;21.83;4.37;;;9.80;99.90;;;;;;5030517;28;20222;-82
2023/01/11 07:52:54;;;;;;;15.50;4.30;;;9.70;99.90;;;;;;5029671;28;20591;-81
2023/01/11 07:55:21;;;;;;;16.90;4.57;;;9.70;99.90;;;;;;5047429;28;20228;-82
2023/01/11 07:57:49;;;;;;;22.37;5.00;;;9.60;99.90;;;;;;5051193;28;20309;-81
2023/01/11 08:00:17;;;;;;;24.10;5.27;;;9.60;99.90;;;;;;5048920;28;20214;-81
2023/01/11 08:02:44;;;;;;;22.47;5.23;;;9.60;99.90;;;;;;5050049;28;20726;-81
2023/01/11 08:05:11;;;;;;;16.93;4.93;;;9.60;99.90;;;;;;5049630;28;20260;-83
2023/01/11 08:07:41;;;;;;;22.07;4.93;;;9.60;99.90;;;;;;5049613;28;20845;-83
2023/01/11 08:10:09;;;;;;;25.27;4.50;;;9.60;99.90;;;;;;5050297;28;20869;-83
2023/01/11 08:15:30;;;;;;;17.37;4.67;;;9.60;99.90;;;;;;5042834;28;20256;-84
2023/01/11 08:17:58;;;;;;;28.40;6.33;;;9.60;99.90;;;;;;5060813;28;20256;-81
2023/01/11 08:20:25;;;;;;;19.80;4.10;;;9.50;99.90;;;;;;5049083;28;20217;-83
2023/01/11 08:22:52;;;;;;;24.97;4.50;;;9.50;99.90;;;;;;5054777;28;20937;-85
2023/01/11 08:25:20;;;;;;;21.80;5.37;;;9.50;99.90;;;;;;5060145;28;20209;-81
2023/01/11 08:27:47;;;;;;;22.60;4.50;;;9.50;99.90;;;;;;5048414;28;20210;-85
2023/01/11 08:30:14;;;;;;;23.83;5.50;;;9.60;99.90;;;;;;5062513;28;20867;-86
2023/01/11 08:32:42;;;;;;;17.63;3.50;;;9.50;99.90;;;;;;5047571;28;20206;-78
2023/01/11 08:35:09;;;;;;;24.97;5.23;;;9.50;99.90;;;;;;5034198;28;20343;-79
2023/01/11 08:37:36;;;;;;;14.57;4.17;;;9.50;99.90;;;;;;5027235;28;20213;-78
2023/01/11 08:40:03;;;;;;;22.37;4.57;;;9.50;99.90;;;;;;5030690;28;20298;-83
2023/01/11 08:42:31;;;;;;;22.27;4.73;;;9.60;99.90;;;;;;5047985;28;20217;-79
2023/01/11 08:44:58;;;;;;;22.93;5.00;;;9.60;99.90;;;;;;5049040;28;20206;-82
2023/01/11 08:47:25;;;;;;;24.13;5.13;;;9.60;99.90;;;;;;5043261;28;20202;-85
2023/01/11 08:49:54;;;;;;;21.93;5.37;;;9.50;99.90;;;;;;5028287;28;20281;-82
2023/01/11 08:52:21;;;;;;;21.23;4.90;;;9.50;99.90;;;;;;5029813;28;20203;-81
2023/01/11 08:54:48;;;;;;;28.13;5.23;;;9.50;99.90;;;;;;5028319;28;20341;-80
2023/01/11 08:57:15;;;;;;;21.43;5.03;;;9.50;99.90;;;;;;5029208;28;20666;-85
2023/01/11 08:59:42;;;;;;;18.23;4.50;;;9.50;99.90;;;;;;5029009;28;20203;-83
2023/01/11 09:02:11;;;;;;;24.70;5.70;;;9.40;99.90;;;;;;5029894;28;20230;-84
2023/01/11 09:04:38;;;;;;;18.83;4.00;;;9.40;99.90;;;;;;5029766;28;20202;-83
2023/01/11 09:07:07;;;;;;;20.13;4.60;;;9.50;99.90;;;;;;5028366;28;20286;-85
2023/01/11 09:09:34;;;;;;;19.27;4.17;;;9.40;99.90;;;;;;5024042;28;20202;-79
2023/01/11 09:12:01;;;;;;;28.30;4.97;;;9.50;99.90;;;;;;5026354;28;20210;-81
2023/01/11 09:14:29;;;;;;;19.60;4.53;;;9.40;99.90;;;;;;5040654;28;20225;-80
2023/01/11 09:16:56;;;;;;;19.53;5.00;;;9.40;99.90;;;;;;5042629;28;20199;-83
2023/01/11 09:19:23;;;;;;;18.20;5.80;;;9.40;99.90;;;;;;5027309;28;20285;-80
2023/01/11 09:21:51;;;;;;;18.70;5.47;;;9.40;99.90;;;;;;5026991;28;20211;-80
2023/01/11 09:24:20;;;;;;;22.23;5.13;;;9.40;99.90;;;;;;5038108;28;20212;-79
2023/01/11 09:26:47;;;;;;;19.30;5.00;;;9.40;99.90;;;;;;5046929;28;20284;-80
2023/01/11 09:29:14;;;;;;;21.73;5.53;;;9.50;99.90;;;;;;5042145;28;20496;-82
2023/01/11 09:31:40;;;;;;;24.33;6.13;;;9.50;99.90;;;;;;5043993;28;20198;-78
2023/01/11 09:34:11;;;;;;;34.70;7.00;;;9.50;99.90;;;;;;5042662;28;20225;-80
2023/01/11 09:36:39;;;;;;;33.40;7.10;;;9.60;99.90;;;;;;5044219;28;20190;-82
2023/01/11 09:39:09;;;;;;;22.83;6.23;;;9.60;99.90;;;;;;5039474;28;20212;-80
2023/01/11 09:42:11;;;;;;;26.53;6.87;;;9.60;99.90;;;;;;5044943;28;20295;-81
2023/01/11 09:44:49;;;;;;;25.93;7.00;;;9.60;99.90;;;;;;5044010;28;20189;-80
2023/01/11 09:47:24;;;;;;;25.87;8.70;;;9.60;99.90;;;;;;5044642;28;20209;-87
2023/01/11 09:49:55;;;;;;;28.40;6.50;;;9.50;99.90;;;;;;5047318;28;20323;-81
2023/01/11 09:52:27;;;;;;;20.27;4.47;;;9.50;99.90;;;;;;5032482;28;20210;-82
2023/01/11 09:54:55;;;;;;;25.40;6.03;;;9.50;99.90;;;;;;5035490;28;20225;-81
2023/01/11 09:57:33;;;;;;;24.10;4.70;;;9.50;99.90;;;;;;5049247;28;20209;-83
2023/01/11 10:00:08;;;;;;;22.70;4.80;;;9.60;99.90;;;;;;5049160;28;20204;-85
2023/01/11 10:02:47;;;;;;;23.27;4.53;;;9.60;99.90;;;;;;5031040;28;20246;-84
2023/01/11 10:05:29;;;;;;;20.80;4.93;;;9.60;99.90;;;;;;5029526;28;20280;-83
2023/01/11 10:08:12;;;;;;;19.53;4.27;;;9.60;99.90;;;;;;5029697;28;20207;-86
2023/01/11 10:10:47;;;;;;;20.33;5.00;;;9.60;99.90;;;;;;5049951;28;20295;-85
2023/01/11 10:13:32;;;;;;;22.63;5.97;;;9.60;99.90;;;;;;5050664;28;20284;-88
2023/01/11 10:16:09;;;;;;;20.57;4.57;;;9.60;99.90;;;;;;5035472;28;20213;-81
2023/01/11 10:18:50;;;;;;;21.23;4.83;;;9.60;99.90;;;;;;5026973;28;20238;-80
2023/01/11 10:21:27;;;;;;;23.13;4.07;;;9.60;99.90;;;;;;5025596;28;20214;-81
2023/01/11 10:24:00;;;;;;;23.93;4.50;;;9.60;99.90;;;;;;5027496;28;20186;-85
2023/01/11 10:26:34;;;;;;;15.13;3.90;;;9.60;99.90;;;;;;5027490;28;20206;-88
2023/01/11 10:29:28;;;;;;;18.83;4.77;;;9.60;99.90;;;;;;5036653;28;20205;-82
2023/01/11 10:32:17;;;;;;;22.63;4.30;;;9.60;99.90;;;;;;5047471;28;20511;-80
2023/01/11 10:37:46;;;;;;;27.70;5.10;;;9.70;99.90;;;;;;5040509;28;20621;-82
2023/01/11 10:40:34;;;;;;;23.77;6.37;;;9.70;99.90;;;;;;5041983;28;20320;-85
2023/01/11 10:43:07;;;;;;;17.30;6.10;;;9.70;99.90;;;;;;5026107;28;20662;-80
2023/01/11 10:45:42;;;;;;;29.30;6.80;;;9.80;99.90;;;;;;5025137;28;20211;-82
2023/01/11 10:48:19;;;;;;;32.87;5.27;;;9.80;99.90;;;;;;5044601;28;20288;-89
2023/01/11 10:50:54;;;;;;;25.57;6.67;;;9.80;99.90;;;;;;5029999;28;20219;-90
2023/01/11 10:53:27;;;;;;;17.37;5.03;;;9.90;99.90;;;;;;5030722;28;20305;-88
2023/01/11 10:56:00;;;;;;;21.43;6.30;;;9.90;99.90;;;;;;5030960;28;20731;-84
2023/01/11 10:58:44;;;;;;;24.20;5.33;;;10.00;99.90;;;;;;5029392;28;20268;-83
2023/01/11 11:01:25;;;;;;;24.23;5.13;;;10.00;99.90;;;;;;5029387;28;20492;-86
2023/01/11 11:04:10;;;;;;;25.97;5.33;;;10.10;99.90;;;;;;5034689;28;20333;-85
2023/01/11 11:06:45;;;;;;;27.23;5.30;;;10.10;99.90;;;;;;5027198;28;20207;-82
2023/01/11 11:09:23;;;;;;;35.40;5.90;;;10.10;99.90;;;;;;5027159;28;20214;-83
2023/01/11 11:11:56;;;;;;;28.97;6.03;;;10.20;99.90;;;;;;5023917;28;20673;-81
2023/01/11 11:14:29;;;;;;;24.03;6.10;;;10.20;99.90;;;;;;5038346;28;20229;-82
2023/01/11 11:17:09;;;;;;;26.13;8.10;;;10.20;99.90;;;;;;5042331;28;20260;-81
2023/01/11 11:19:36;;;;;;;31.13;9.17;;;10.20;99.90;;;;;;5025245;28;20210;-79
2023/01/11 11:22:03;;;;;;;31.27;11.80;;;10.30;99.90;;;;;;5016669;28;20250;-82
2023/01/11 11:24:35;;;;;;;32.27;12.53;;;10.40;99.90;;;;;;5026130;28;20207;-84
2023/01/11 11:27:14;;;;;;;31.80;11.70;;;10.40;99.90;;;;;;5017481;28;20207;-79
2023/01/11 11:29:43;;;;;;;37.27;12.00;;;10.40;99.90;;;;;;5023448;28;20508;-80
2023/01/11 11:32:20;;;;;;;29.50;8.67;;;10.40;99.90;;;;;;5024977;28;20203;-82
2023/01/11 11:34:48;;;;;;;26.67;7.50;;;10.40;99.90;;;;;;5025655;28;20326;-84
2023/01/11 11:37:36;;;;;;;29.43;7.80;;;10.40;99.90;;;;;;5024333;28;20203;-83
2023/01/11 11:40:04;;;;;;;32.03;7.37;;;10.40;99.90;;;;;;5028975;28;20321;-85
2023/01/11 11:42:31;;;;;;;33.10;10.47;;;10.40;99.90;;;;;;5030497;28;20294;-85
2023/01/11 11:45:17;;;;;;;38.83;11.07;;;10.50;99.90;;;;;;5027061;28;20206;-82
2023/01/11 11:48:01;;;;;;;31.57;8.83;;;10.60;99.90;;;;;;5026901;28;20199;-84
2023/01/11 11:50:28;;;;;;;22.90;7.10;;;10.70;99.90;;;;;;5031443;28;20257;-85
2023/01/11 11:53:02;;;;;;;31.47;6.57;;;10.70;99.90;;;;;;5030989;28;20230;-85
2023/01/11 11:55:32;;;;;;;34.70;6.10;;;10.70;99.90;;;;;;5029771;28;20465;-86
2023/01/11 11:58:04;;;;;;;25.43;5.53;;;10.70;99.90;;;;;;5030120;28;20776;-85
2023/01/11 12:00:33;;;;;;;30.33;5.63;;;10.70;99.90;;;;;;5030523;28;20607;-83
2023/01/11 12:03:07;;;;;;;28.03;5.97;;;10.70;99.90;;;;;;5028950;28;20257;-86
2023/01/11 12:05:34;;;;;;;19.43;4.43;;;10.70;99.90;;;;;;5027537;28;20214;-83
2023/01/11 12:08:01;;;;;;;20.03;5.23;;;10.70;99.90;;;;;;5032074;28;20226;-82
2023/01/11 12:10:30;;;;;;;24.43;6.10;;;10.70;99.90;;;;;;5031554;28;20281;-85
2023/01/11 12:12:59;;;;;;;24.93;4.93;;;10.70;99.90;;;;;;5042716;28;20567;-86
2023/01/11 12:15:27;;;;;;;29.43;5.13;;;10.60;99.90;;;;;;5046429;28;20229;-80
2023/01/11 12:17:55;;;;;;;27.60;5.83;;;10.60;99.90;;;;;;5033589;28;20206;-84
2023/01/11 12:20:39;;;;;;;23.00;5.53;;;10.60;99.90;;;;;;5030133;28;20238;-81
2023/01/11 12:23:15;;;;;;;24.20;4.53;;;10.60;99.90;;;;;;5034365;28;20321;-85
2023/01/11 12:26:01;;;;;;;26.20;4.63;;;10.60;99.90;;;;;;5048865;28;20886;-85
2023/01/11 12:28:42;;;;;;;26.00;4.97;;;10.60;99.90;;;;;;5043473;28;20292;-80
2023/01/11 12:31:19;;;;;;;23.17;4.10;;;10.50;99.90;;;;;;5046729;28;20229;-81
2023/01/11 12:33:53;;;;;;;28.77;6.53;;;10.50;99.90;;;;;;5047273;28;20224;-83
2023/01/11 12:36:29;;;;;;;21.93;4.63;;;10.50;99.90;;;;;;5029613;28;20218;-84
2023/01/11 12:39:04;;;;;;;25.40;5.47;;;10.50;99.90;;;;;;5030664;28;20214;-82
2023/01/11 12:42:02;;;;;;;29.27;5.83;;;10.50;99.90;;;;;;5030440;28;20318;-84
2023/01/11 12:44:48;;;;;;;28.20;5.20;;;10.40;99.90;;;;;;5030886;28;20202;-86
2023/01/11 12:47:42;;;;;;;21.80;5.33;;;10.40;99.90;;;;;;5025828;28;20210;-87
2023/01/11 12:50:17;;;;;;;22.67;6.53;;;10.40;99.90;;;;;;5024819;28;20558;-85
2023/01/11 12:53:07;;;;;;;25.50;5.90;;;10.40;99.90;;;;;;5026137;28;20214;-81
2023/01/11 12:55:53;;;;;;;27.93;5.50;;;10.40;99.90;;;;;;5024012;28;20684;-82
2023/01/11 12:58:29;;;;;;;32.40;6.53;;;10.40;99.90;;;;;;5027409;28;20216;-84
2023/01/11 13:01:11;;;;;;;23.27;5.20;;;10.40;99.90;;;;;;5026901;28;20205;-83
2023/01/11 13:04:13;;;;;;;23.53;4.57;;;10.40;99.90;;;;;;5027136;28;20234;-82
2023/01/11 13:06:45;;;;;;;26.10;5.00;;;10.40;99.90;;;;;;5025700;28;20204;-80
2023/01/11 13:09:27;;;;;;;31.70;5.87;;;10.40;99.90;;;;;;5026288;28;20183;-80
2023/01/11 13:12:02;;;;;;;24.57;4.90;;;10.40;99.90;;;;;;5026788;28;20281;-80
2023/01/11 13:14:43;;;;;;;28.40;6.17;;;10.40;99.90;;;;;;5025621;28;20289;-79
2023/01/11 13:17:24;;;;;;;22.40;4.87;;;10.40;99.90;;;;;;5025762;28;20216;-81
2023/01/11 13:20:00;;;;;;;22.30;5.63;;;10.30;99.90;;;;;;5026254;28;20274;-82
2023/01/11 13:22:31;;;;;;;28.17;5.63;;;10.30;99.90;;;;;;5025175;28;20212;-84
2023/01/11 13:25:02;;;;;;;24.30;5.07;;;10.30;99.90;;;;;;5025868;28;20771;-80